sensor_id;sensor_type;location;lat;lon;timestamp;P1;durP1;ratioP1;P2;durP2;ratioP2
35074;SDS011;21260;34.984;32.490;2023-04-12T00:01:10;3.63;;;1.60;;
35074;SDS011;21260;34.984;32.490;2023-04-12T00:03:36;4.55;;;1.40;;
35074;SDS011;21260;34.984;32.490;2023-04-12T00:06:03;4.10;;;1.30;;
35074;SDS011;21260;34.984;32.490;2023-04-12T00:08:31;2.88;;;1.30;;
35074;SDS011;21260;34.984;32.490;2023-04-12T00:10:59;6.15;;;1.30;;
35074;SDS011;21260;34.984;32.490;2023-04-12T00:13:29;2.45;;;1.25;;
35074;SDS011;21260;34.984;32.490;2023-04-12T00:15:55;1.90;;;1.30;;
35074;SDS011;21260;34.984;32.490;2023-04-12T00:18:22;2.17;;;1.17;;
35074;SDS011;21260;34.984;32.490;2023-04-12T00:20:52;2.07;;;1.33;;
35074;SDS011;21260;34.984;32.490;2023-04-12T00:23:20;1.58;;;1.10;;
35074;SDS011;21260;34.984;32.490;2023-04-12T00:25:47;1.60;;;1.00;;
35074;SDS011;21260;34.984;32.490;2023-04-12T00:28:13;2.80;;;1.10;;
35074;SDS011;21260;34.984;32.490;2023-04-12T00:30:40;2.22;;;1.17;;
35074;SDS011;21260;34.984;32.490;2023-04-12T00:33:06;3.17;;;1.00;;
35074;SDS011;21260;34.984;32.490;2023-04-12T00:35:32;1.60;;;1.20;;
35074;SDS011;21260;34.984;32.490;2023-04-12T00:37:59;2.17;;;1.17;;
35074;SDS011;21260;34.984;32.490;2023-04-12T00:40:27;2.05;;;1.20;;
35074;SDS011;21260;34.984;32.490;2023-04-12T00:42:53;2.42;;;1.30;;
35074;SDS011;21260;34.984;32.490;2023-04-12T00:45:21;4.65;;;1.40;;
35074;SDS011;21260;34.984;32.490;2023-04-12T00:47:47;3.78;;;1.33;;
35074;SDS011;21260;34.984;32.490;2023-04-12T00:50:13;3.10;;;1.30;;
35074;SDS011;21260;34.984;32.490;2023-04-12T00:52:40;2.38;;;1.30;;
35074;SDS011;21260;34.984;32.490;2023-04-12T00:55:06;3.30;;;1.50;;
35074;SDS011;21260;34.984;32.490;2023-04-12T00:57:37;4.38;;;1.70;;
35074;SDS011;21260;34.984;32.490;2023-04-12T01:00:05;4.87;;;1.60;;
35074;SDS011;21260;34.984;32.490;2023-04-12T01:02:37;3.72;;;1.60;;
35074;SDS011;21260;34.984;32.490;2023-04-12T01:05:11;4.30;;;1.80;;
35074;SDS011;21260;34.984;32.490;2023-04-12T01:11:09;4.40;;;1.58;;
35074;SDS011;21260;34.984;32.490;2023-04-12T01:14:08;2.40;;;1.50;;
35074;SDS011;21260;34.984;32.490;2023-04-12T01:16:47;4.22;;;1.73;;
35074;SDS011;21260;34.984;32.490;2023-04-12T01:28:03;5.70;;;1.90;;
35074;SDS011;21260;34.984;32.490;2023-04-12T01:30:33;2.70;;;1.60;;
35074;SDS011;21260;34.984;32.490;2023-04-12T01:33:02;4.87;;;1.77;;
35074;SDS011;21260;34.984;32.490;2023-04-12T01:35:34;3.88;;;1.60;;
35074;SDS011;21260;34.984;32.490;2023-04-12T01:38:01;4.60;;;1.70;;
35074;SDS011;21260;34.984;32.490;2023-04-12T01:40:30;3.90;;;1.63;;
35074;SDS011;21260;34.984;32.490;2023-04-12T01:43:12;3.27;;;1.70;;
35074;SDS011;21260;34.984;32.490;2023-04-12T01:45:40;4.18;;;2.00;;
35074;SDS011;21260;34.984;32.490;2023-04-12T01:48:07;3.65;;;1.80;;
35074;SDS011;21260;34.984;32.490;2023-04-12T01:53:12;4.30;;;1.75;;
35074;SDS011;21260;34.984;32.490;2023-04-12T01:55:52;5.25;;;1.88;;
35074;SDS011;21260;34.984;32.490;2023-04-12T01:58:26;5.03;;;1.98;;
35074;SDS011;21260;34.984;32.490;2023-04-12T02:00:55;4.82;;;2.00;;
35074;SDS011;21260;34.984;32.490;2023-04-12T02:03:25;3.33;;;2.07;;
35074;SDS011;21260;34.984;32.490;2023-04-12T02:05:57;4.25;;;1.95;;
35074;SDS011;21260;34.984;32.490;2023-04-12T02:08:25;3.40;;;2.00;;
35074;SDS011;21260;34.984;32.490;2023-04-12T02:10:51;4.90;;;2.00;;
35074;SDS011;21260;34.984;32.490;2023-04-12T02:13:19;6.15;;;1.92;;
35074;SDS011;21260;34.984;32.490;2023-04-12T02:15:45;4.95;;;1.90;;
35074;SDS011;21260;34.984;32.490;2023-04-12T02:18:11;4.65;;;2.00;;
35074;SDS011;21260;34.984;32.490;2023-04-12T02:20:38;7.10;;;2.17;;
35074;SDS011;21260;34.984;32.490;2023-04-12T02:23:04;5.57;;;2.00;;
35074;SDS011;21260;34.984;32.490;2023-04-12T02:25:31;3.17;;;1.90;;
35074;SDS011;21260;34.984;32.490;2023-04-12T02:27:57;7.37;;;2.20;;
35074;SDS011;21260;34.984;32.490;2023-04-12T02:30:23;5.53;;;2.17;;
35074;SDS011;21260;34.984;32.490;2023-04-12T02:32:49;5.13;;;2.20;;
35074;SDS011;21260;34.984;32.490;2023-04-12T02:35:17;6.40;;;2.20;;
35074;SDS011;21260;34.984;32.490;2023-04-12T02:37:45;5.40;;;2.05;;
35074;SDS011;21260;34.984;32.490;2023-04-12T02:40:12;5.18;;;2.33;;
35074;SDS011;21260;34.984;32.490;2023-04-12T02:42:42;6.93;;;2.58;;
35074;SDS011;21260;34.984;32.490;2023-04-12T02:45:09;9.55;;;2.50;;
35074;SDS011;21260;34.984;32.490;2023-04-12T02:47:36;5.18;;;2.38;;
35074;SDS011;21260;34.984;32.490;2023-04-12T02:50:04;6.22;;;2.33;;
35074;SDS011;21260;34.984;32.490;2023-04-12T02:52:31;7.80;;;2.60;;
35074;SDS011;21260;34.984;32.490;2023-04-12T02:54:58;6.32;;;2.38;;
35074;SDS011;21260;34.984;32.490;2023-04-12T02:57:24;7.20;;;2.60;;
35074;SDS011;21260;34.984;32.490;2023-04-12T02:59:50;6.63;;;2.80;;
35074;SDS011;21260;34.984;32.490;2023-04-12T03:02:20;5.80;;;2.47;;
35074;SDS011;21260;34.984;32.490;2023-04-12T03:04:47;6.60;;;2.42;;
35074;SDS011;21260;34.984;32.490;2023-04-12T03:07:17;5.65;;;2.35;;
35074;SDS011;21260;34.984;32.490;2023-04-12T03:09:45;4.32;;;2.33;;
35074;SDS011;21260;34.984;32.490;2023-04-12T03:12:14;6.13;;;2.15;;
35074;SDS011;21260;34.984;32.490;2023-04-12T03:14:41;5.93;;;2.28;;
35074;SDS011;21260;34.984;32.490;2023-04-12T03:17:07;5.15;;;2.35;;
35074;SDS011;21260;34.984;32.490;2023-04-12T03:19:34;6.68;;;2.42;;
35074;SDS011;21260;34.984;32.490;2023-04-12T03:22:01;6.00;;;2.50;;
35074;SDS011;21260;34.984;32.490;2023-04-12T03:24:28;5.13;;;2.30;;
35074;SDS011;21260;34.984;32.490;2023-04-12T03:26:58;6.53;;;2.42;;
35074;SDS011;21260;34.984;32.490;2023-04-12T03:29:29;4.03;;;2.25;;
35074;SDS011;21260;34.984;32.490;2023-04-12T03:31:56;5.07;;;2.30;;
35074;SDS011;21260;34.984;32.490;2023-04-12T03:34:24;4.63;;;2.30;;
35074;SDS011;21260;34.984;32.490;2023-04-12T03:36:56;4.43;;;2.30;;
35074;SDS011;21260;34.984;32.490;2023-04-12T03:39:26;5.88;;;2.30;;
35074;SDS011;21260;34.984;32.490;2023-04-12T03:41:53;5.38;;;2.00;;
35074;SDS011;21260;34.984;32.490;2023-04-12T03:44:19;5.20;;;1.90;;
35074;SDS011;21260;34.984;32.490;2023-04-12T03:46:46;3.70;;;1.92;;
35074;SDS011;21260;34.984;32.490;2023-04-12T03:49:13;6.00;;;2.20;;
35074;SDS011;21260;34.984;32.490;2023-04-12T03:51:40;4.30;;;1.83;;
35074;SDS011;21260;34.984;32.490;2023-04-12T03:54:10;5.15;;;2.00;;
35074;SDS011;21260;34.984;32.490;2023-04-12T03:56:37;4.75;;;2.00;;
35074;SDS011;21260;34.984;32.490;2023-04-12T03:59:04;5.00;;;2.00;;
35074;SDS011;21260;34.984;32.490;2023-04-12T04:01:34;4.70;;;2.00;;
35074;SDS011;21260;34.984;32.490;2023-04-12T04:04:01;4.28;;;1.98;;
35074;SDS011;21260;34.984;32.490;2023-04-12T04:06:29;5.18;;;2.08;;
35074;SDS011;21260;34.984;32.490;2023-04-12T04:08:56;4.20;;;1.60;;
35074;SDS011;21260;34.984;32.490;2023-04-12T04:11:22;4.87;;;1.67;;
35074;SDS011;21260;34.984;32.490;2023-04-12T04:13:49;4.95;;;1.77;;
35074;SDS011;21260;34.984;32.490;2023-04-12T04:16:16;4.22;;;1.60;;
35074;SDS011;21260;34.984;32.490;2023-04-12T04:18:42;5.28;;;1.88;;
35074;SDS011;21260;34.984;32.490;2023-04-12T04:21:08;3.47;;;1.67;;
35074;SDS011;21260;34.984;32.490;2023-04-12T04:23:35;4.80;;;1.80;;
35074;SDS011;21260;34.984;32.490;2023-04-12T04:26:07;3.70;;;1.40;;
35074;SDS011;21260;34.984;32.490;2023-04-12T04:28:36;3.13;;;1.60;;
35074;SDS011;21260;34.984;32.490;2023-04-12T04:31:06;4.93;;;1.83;;
35074;SDS011;21260;34.984;32.490;2023-04-12T04:33:34;3.43;;;1.73;;
35074;SDS011;21260;34.984;32.490;2023-04-12T04:36:02;4.43;;;1.80;;
35074;SDS011;21260;34.984;32.490;2023-04-12T04:38:29;4.05;;;1.70;;
35074;SDS011;21260;34.984;32.490;2023-04-12T04:40:59;5.03;;;1.70;;
35074;SDS011;21260;34.984;32.490;2023-04-12T04:43:27;4.75;;;1.80;;
35074;SDS011;21260;34.984;32.490;2023-04-12T04:45:58;6.35;;;1.70;;
35074;SDS011;21260;34.984;32.490;2023-04-12T04:48:25;5.00;;;1.70;;
35074;SDS011;21260;34.984;32.490;2023-04-12T04:50:51;3.22;;;1.40;;
35074;SDS011;21260;34.984;32.490;2023-04-12T04:53:20;4.50;;;1.77;;
35074;SDS011;21260;34.984;32.490;2023-04-12T04:55:47;5.13;;;1.58;;
35074;SDS011;21260;34.984;32.490;2023-04-12T04:58:13;3.85;;;1.48;;
35074;SDS011;21260;34.984;32.490;2023-04-12T05:00:40;4.40;;;1.50;;
35074;SDS011;21260;34.984;32.490;2023-04-12T05:03:09;3.22;;;1.50;;
35074;SDS011;21260;34.984;32.490;2023-04-12T05:05:36;3.35;;;1.50;;
35074;SDS011;21260;34.984;32.490;2023-04-12T05:08:03;4.72;;;1.50;;
35074;SDS011;21260;34.984;32.490;2023-04-12T05:10:29;3.25;;;1.40;;
35074;SDS011;21260;34.984;32.490;2023-04-12T05:12:55;4.00;;;1.70;;
35074;SDS011;21260;34.984;32.490;2023-04-12T05:15:22;3.92;;;1.60;;
35074;SDS011;21260;34.984;32.490;2023-04-12T05:17:48;6.75;;;1.77;;
35074;SDS011;21260;34.984;32.490;2023-04-12T05:20:14;4.73;;;1.53;;
35074;SDS011;21260;34.984;32.490;2023-04-12T05:22:40;5.13;;;1.60;;
35074;SDS011;21260;34.984;32.490;2023-04-12T05:25:07;4.67;;;1.70;;
35074;SDS011;21260;34.984;32.490;2023-04-12T05:27:34;4.95;;;1.70;;
35074;SDS011;21260;34.984;32.490;2023-04-12T05:30:00;5.40;;;1.67;;
35074;SDS011;21260;34.984;32.490;2023-04-12T05:32:26;4.28;;;1.33;;
35074;SDS011;21260;34.984;32.490;2023-04-12T05:34:53;3.78;;;1.40;;
35074;SDS011;21260;34.984;32.490;2023-04-12T05:37:20;4.00;;;1.50;;
35074;SDS011;21260;34.984;32.490;2023-04-12T05:39:46;3.95;;;1.58;;
35074;SDS011;21260;34.984;32.490;2023-04-12T05:42:12;6.22;;;1.67;;
35074;SDS011;21260;34.984;32.490;2023-04-12T05:44:39;3.25;;;1.40;;
35074;SDS011;21260;34.984;32.490;2023-04-12T05:47:05;3.90;;;1.45;;
35074;SDS011;21260;34.984;32.490;2023-04-12T05:49:31;4.00;;;1.50;;
35074;SDS011;21260;34.984;32.490;2023-04-12T05:51:58;3.55;;;1.42;;
35074;SDS011;21260;34.984;32.490;2023-04-12T05:54:24;4.38;;;1.50;;
35074;SDS011;21260;34.984;32.490;2023-04-12T05:56:51;5.97;;;1.60;;
35074;SDS011;21260;34.984;32.490;2023-04-12T05:59:20;3.92;;;1.52;;
35074;SDS011;21260;34.984;32.490;2023-04-12T06:01:46;3.73;;;1.57;;
35074;SDS011;21260;34.984;32.490;2023-04-12T06:04:13;3.65;;;1.58;;
35074;SDS011;21260;34.984;32.490;2023-04-12T06:06:39;4.05;;;1.50;;
35074;SDS011;21260;34.984;32.490;2023-04-12T06:09:08;4.65;;;1.60;;
35074;SDS011;21260;34.984;32.490;2023-04-12T06:11:35;5.65;;;1.55;;
35074;SDS011;21260;34.984;32.490;2023-04-12T06:14:03;5.10;;;1.80;;
35074;SDS011;21260;34.984;32.490;2023-04-12T06:16:29;4.53;;;1.50;;
35074;SDS011;21260;34.984;32.490;2023-04-12T06:18:55;3.85;;;1.60;;
35074;SDS011;21260;34.984;32.490;2023-04-12T06:21:22;5.50;;;1.80;;
35074;SDS011;21260;34.984;32.490;2023-04-12T06:23:49;5.20;;;1.70;;
35074;SDS011;21260;34.984;32.490;2023-04-12T06:26:15;4.75;;;1.60;;
35074;SDS011;21260;34.984;32.490;2023-04-12T06:28:42;3.85;;;1.58;;
35074;SDS011;21260;34.984;32.490;2023-04-12T06:31:08;3.40;;;1.80;;
35074;SDS011;21260;34.984;32.490;2023-04-12T06:33:34;5.72;;;1.70;;
35074;SDS011;21260;34.984;32.490;2023-04-12T06:36:01;3.65;;;1.60;;
35074;SDS011;21260;34.984;32.490;2023-04-12T06:38:27;6.03;;;1.50;;
35074;SDS011;21260;34.984;32.490;2023-04-12T06:40:54;4.53;;;1.73;;
35074;SDS011;21260;34.984;32.490;2023-04-12T06:43:20;4.38;;;1.70;;
35074;SDS011;21260;34.984;32.490;2023-04-12T06:45:47;4.78;;;1.52;;
35074;SDS011;21260;34.984;32.490;2023-04-12T06:48:16;2.80;;;1.48;;
35074;SDS011;21260;34.984;32.490;2023-04-12T06:50:46;4.07;;;1.50;;
35074;SDS011;21260;34.984;32.490;2023-04-12T06:53:12;4.80;;;1.60;;
35074;SDS011;21260;34.984;32.490;2023-04-12T06:55:38;4.57;;;1.60;;
35074;SDS011;21260;34.984;32.490;2023-04-12T06:58:05;4.30;;;1.45;;
35074;SDS011;21260;34.984;32.490;2023-04-12T07:00:31;3.67;;;1.60;;
35074;SDS011;21260;34.984;32.490;2023-04-12T07:02:58;3.73;;;1.40;;
35074;SDS011;21260;34.984;32.490;2023-04-12T07:05:24;4.05;;;1.50;;
35074;SDS011;21260;34.984;32.490;2023-04-12T07:07:51;3.95;;;1.35;;
35074;SDS011;21260;34.984;32.490;2023-04-12T07:10:17;3.42;;;1.55;;
35074;SDS011;21260;34.984;32.490;2023-04-12T07:12:43;3.90;;;1.50;;
35074;SDS011;21260;34.984;32.490;2023-04-12T07:15:09;3.90;;;1.35;;
35074;SDS011;21260;34.984;32.490;2023-04-12T07:17:36;3.35;;;1.20;;
35074;SDS011;21260;34.984;32.490;2023-04-12T07:20:02;3.50;;;1.30;;
35074;SDS011;21260;34.984;32.490;2023-04-12T07:22:29;5.78;;;1.60;;
35074;SDS011;21260;34.984;32.490;2023-04-12T07:24:55;5.43;;;1.70;;
35074;SDS011;21260;34.984;32.490;2023-04-12T07:27:22;3.90;;;1.50;;
35074;SDS011;21260;34.984;32.490;2023-04-12T07:29:50;4.00;;;1.48;;
35074;SDS011;21260;34.984;32.490;2023-04-12T07:32:17;4.63;;;1.40;;
35074;SDS011;21260;34.984;32.490;2023-04-12T07:34:43;6.50;;;2.90;;
35074;SDS011;21260;34.984;32.490;2023-04-12T07:37:10;3.28;;;1.63;;
35074;SDS011;21260;34.984;32.490;2023-04-12T07:39:37;4.10;;;1.60;;
35074;SDS011;21260;34.984;32.490;2023-04-12T07:42:05;3.00;;;1.57;;
35074;SDS011;21260;34.984;32.490;2023-04-12T07:44:31;5.00;;;2.40;;
35074;SDS011;21260;34.984;32.490;2023-04-12T07:46:58;3.50;;;1.70;;
35074;SDS011;21260;34.984;32.490;2023-04-12T07:49:25;3.50;;;1.50;;
35074;SDS011;21260;34.984;32.490;2023-04-12T07:51:52;4.43;;;1.50;;
35074;SDS011;21260;34.984;32.490;2023-04-12T07:54:18;4.97;;;1.70;;
35074;SDS011;21260;34.984;32.490;2023-04-12T07:57:00;4.07;;;1.70;;
35074;SDS011;21260;34.984;32.490;2023-04-12T07:59:30;4.97;;;1.70;;
35074;SDS011;21260;34.984;32.490;2023-04-12T08:01:56;6.05;;;1.85;;
35074;SDS011;21260;34.984;32.490;2023-04-12T08:04:22;3.97;;;1.67;;
35074;SDS011;21260;34.984;32.490;2023-04-12T08:06:49;4.35;;;1.60;;
35074;SDS011;21260;34.984;32.490;2023-04-12T08:09:16;4.32;;;1.80;;
35074;SDS011;21260;34.984;32.490;2023-04-12T08:11:42;3.87;;;1.77;;
35074;SDS011;21260;34.984;32.490;2023-04-12T08:14:08;4.65;;;1.80;;
35074;SDS011;21260;34.984;32.490;2023-04-12T08:16:34;3.78;;;1.80;;
35074;SDS011;21260;34.984;32.490;2023-04-12T08:19:01;4.45;;;1.70;;
35074;SDS011;21260;34.984;32.490;2023-04-12T08:21:27;8.23;;;5.15;;
35074;SDS011;21260;34.984;32.490;2023-04-12T08:23:54;5.97;;;2.60;;
35074;SDS011;21260;34.984;32.490;2023-04-12T08:26:21;6.78;;;1.88;;
35074;SDS011;21260;34.984;32.490;2023-04-12T08:28:47;2.85;;;1.52;;
35074;SDS011;21260;34.984;32.490;2023-04-12T08:31:13;4.38;;;1.90;;
35074;SDS011;21260;34.984;32.490;2023-04-12T08:33:41;4.35;;;1.90;;
35074;SDS011;21260;34.984;32.490;2023-04-12T08:36:07;3.87;;;1.70;;
35074;SDS011;21260;34.984;32.490;2023-04-12T08:38:35;5.18;;;1.90;;
35074;SDS011;21260;34.984;32.490;2023-04-12T08:41:05;5.45;;;1.90;;
35074;SDS011;21260;34.984;32.490;2023-04-12T08:43:32;8.10;;;2.00;;
35074;SDS011;21260;34.984;32.490;2023-04-12T08:45:59;7.07;;;1.90;;
35074;SDS011;21260;34.984;32.490;2023-04-12T08:48:27;3.97;;;1.63;;
35074;SDS011;21260;34.984;32.490;2023-04-12T08:50:55;5.47;;;1.70;;
35074;SDS011;21260;34.984;32.490;2023-04-12T08:53:21;5.68;;;1.92;;
35074;SDS011;21260;34.984;32.490;2023-04-12T08:55:48;5.40;;;1.70;;
35074;SDS011;21260;34.984;32.490;2023-04-12T08:58:14;4.93;;;2.00;;
35074;SDS011;21260;34.984;32.490;2023-04-12T09:00:41;3.28;;;1.80;;
35074;SDS011;21260;34.984;32.490;2023-04-12T09:03:09;4.40;;;1.88;;
35074;SDS011;21260;34.984;32.490;2023-04-12T09:05:35;6.13;;;2.13;;
35074;SDS011;21260;34.984;32.490;2023-04-12T09:08:02;5.97;;;2.33;;
35074;SDS011;21260;34.984;32.490;2023-04-12T09:10:36;6.50;;;2.00;;
35074;SDS011;21260;34.984;32.490;2023-04-12T09:13:03;4.85;;;1.90;;
35074;SDS011;21260;34.984;32.490;2023-04-12T09:15:30;6.05;;;1.83;;
35074;SDS011;21260;34.984;32.490;2023-04-12T09:18:02;5.05;;;1.85;;
35074;SDS011;21260;34.984;32.490;2023-04-12T09:20:38;9.80;;;2.08;;
35074;SDS011;21260;34.984;32.490;2023-04-12T09:23:17;3.25;;;1.70;;
35074;SDS011;21260;34.984;32.490;2023-04-12T09:25:46;4.07;;;1.60;;
35074;SDS011;21260;34.984;32.490;2023-04-12T09:28:25;6.10;;;1.70;;
35074;SDS011;21260;34.984;32.490;2023-04-12T09:30:55;3.53;;;1.60;;
35074;SDS011;21260;34.984;32.490;2023-04-12T09:33:33;4.40;;;1.70;;
35074;SDS011;21260;34.984;32.490;2023-04-12T09:36:04;4.18;;;1.73;;
35074;SDS011;21260;34.984;32.490;2023-04-12T09:38:56;5.40;;;1.90;;
35074;SDS011;21260;34.984;32.490;2023-04-12T09:41:28;2.63;;;1.58;;
35074;SDS011;21260;34.984;32.490;2023-04-12T09:44:00;8.00;;;2.10;;
35074;SDS011;21260;34.984;32.490;2023-04-12T09:46:27;3.33;;;1.70;;
35074;SDS011;21260;34.984;32.490;2023-04-12T09:48:55;2.85;;;1.50;;
35074;SDS011;21260;34.984;32.490;2023-04-12T09:54:03;3.42;;;1.75;;
35074;SDS011;21260;34.984;32.490;2023-04-12T09:56:34;3.83;;;1.98;;
35074;SDS011;21260;34.984;32.490;2023-04-12T09:59:04;4.13;;;1.90;;
35074;SDS011;21260;34.984;32.490;2023-04-12T10:01:35;3.80;;;1.88;;
35074;SDS011;21260;34.984;32.490;2023-04-12T10:04:05;3.15;;;1.73;;
35074;SDS011;21260;34.984;32.490;2023-04-12T10:06:33;4.18;;;2.05;;
35074;SDS011;21260;34.984;32.490;2023-04-12T10:09:04;4.00;;;2.00;;
35074;SDS011;21260;34.984;32.490;2023-04-12T10:11:32;3.45;;;2.20;;
35074;SDS011;21260;34.984;32.490;2023-04-12T10:14:00;6.97;;;2.35;;
35074;SDS011;21260;34.984;32.490;2023-04-12T10:16:27;3.25;;;2.00;;
35074;SDS011;21260;34.984;32.490;2023-04-12T10:18:58;5.60;;;1.90;;
35074;SDS011;21260;34.984;32.490;2023-04-12T10:21:28;4.93;;;1.90;;
35074;SDS011;21260;34.984;32.490;2023-04-12T10:23:56;5.75;;;2.10;;
35074;SDS011;21260;34.984;32.490;2023-04-12T10:26:22;4.17;;;2.30;;
35074;SDS011;21260;34.984;32.490;2023-04-12T10:31:49;5.60;;;2.50;;
35074;SDS011;21260;34.984;32.490;2023-04-12T10:34:17;5.28;;;2.78;;
35074;SDS011;21260;34.984;32.490;2023-04-12T10:36:55;4.82;;;2.50;;
35074;SDS011;21260;34.984;32.490;2023-04-12T10:42:15;5.03;;;2.50;;
35074;SDS011;21260;34.984;32.490;2023-04-12T10:50:25;6.15;;;3.10;;
35074;SDS011;21260;34.984;32.490;2023-04-12T10:55:40;5.88;;;2.90;;
35074;SDS011;21260;34.984;32.490;2023-04-12T10:58:08;5.75;;;3.00;;
35074;SDS011;21260;34.984;32.490;2023-04-12T11:03:25;3.97;;;2.65;;
35074;SDS011;21260;34.984;32.490;2023-04-12T11:06:02;5.95;;;2.80;;
35074;SDS011;21260;34.984;32.490;2023-04-12T11:08:35;5.20;;;3.20;;
35074;SDS011;21260;34.984;32.490;2023-04-12T11:11:16;5.93;;;3.10;;
35074;SDS011;21260;34.984;32.490;2023-04-12T11:13:45;3.97;;;3.58;;
35074;SDS011;21260;34.984;32.490;2023-04-12T11:16:11;5.65;;;3.47;;
35074;SDS011;21260;34.984;32.490;2023-04-12T11:18:37;5.68;;;3.92;;
35074;SDS011;21260;34.984;32.490;2023-04-12T11:21:04;5.70;;;3.47;;
35074;SDS011;21260;34.984;32.490;2023-04-12T11:23:32;6.78;;;3.78;;
35074;SDS011;21260;34.984;32.490;2023-04-12T11:26:01;5.72;;;3.45;;
35074;SDS011;21260;34.984;32.490;2023-04-12T11:28:28;7.90;;;3.30;;
35074;SDS011;21260;34.984;32.490;2023-04-12T11:30:57;6.22;;;3.35;;
35074;SDS011;21260;34.984;32.490;2023-04-12T11:33:57;3.03;;;2.30;;
35074;SDS011;21260;34.984;32.490;2023-04-12T11:36:16;5.13;;;2.50;;
35074;SDS011;21260;34.984;32.490;2023-04-12T11:38:42;10.50;;;7.93;;
35074;SDS011;21260;34.984;32.490;2023-04-12T11:41:13;7.13;;;3.42;;
35074;SDS011;21260;34.984;32.490;2023-04-12T11:43:40;6.63;;;3.00;;
35074;SDS011;21260;34.984;32.490;2023-04-12T11:46:07;6.00;;;3.35;;
35074;SDS011;21260;34.984;32.490;2023-04-12T11:48:35;5.20;;;3.37;;
35074;SDS011;21260;34.984;32.490;2023-04-12T11:51:21;5.53;;;3.55;;
35074;SDS011;21260;34.984;32.490;2023-04-12T11:53:52;5.38;;;3.35;;
35074;SDS011;21260;34.984;32.490;2023-04-12T11:56:21;5.88;;;3.55;;
35074;SDS011;21260;34.984;32.490;2023-04-12T11:58:48;5.10;;;3.45;;
35074;SDS011;21260;34.984;32.490;2023-04-12T12:01:15;10.40;;;3.90;;
35074;SDS011;21260;34.984;32.490;2023-04-12T12:03:44;5.73;;;3.97;;
35074;SDS011;21260;34.984;32.490;2023-04-12T12:06:13;6.50;;;3.38;;
35074;SDS011;21260;34.984;32.490;2023-04-12T12:08:40;5.82;;;3.40;;
35074;SDS011;21260;34.984;32.490;2023-04-12T12:11:07;5.83;;;3.50;;
35074;SDS011;21260;34.984;32.490;2023-04-12T12:13:44;4.80;;;3.50;;
35074;SDS011;21260;34.984;32.490;2023-04-12T12:16:23;6.47;;;3.70;;
35074;SDS011;21260;34.984;32.490;2023-04-12T12:18:52;7.82;;;3.50;;
35074;SDS011;21260;34.984;32.490;2023-04-12T12:21:19;6.45;;;3.60;;
35074;SDS011;21260;34.984;32.490;2023-04-12T12:23:46;9.93;;;3.70;;
35074;SDS011;21260;34.984;32.490;2023-04-12T12:26:21;8.70;;;3.50;;
35074;SDS011;21260;34.984;32.490;2023-04-12T12:28:54;6.22;;;3.70;;
35074;SDS011;21260;34.984;32.490;2023-04-12T12:31:22;6.90;;;3.72;;
35074;SDS011;21260;34.984;32.490;2023-04-12T12:33:54;7.72;;;3.75;;
35074;SDS011;21260;34.984;32.490;2023-04-12T12:36:29;7.95;;;3.70;;
35074;SDS011;21260;34.984;32.490;2023-04-12T12:39:01;5.82;;;3.50;;
35074;SDS011;21260;34.984;32.490;2023-04-12T12:41:36;6.55;;;3.92;;
35074;SDS011;21260;34.984;32.490;2023-04-12T12:44:04;7.45;;;4.80;;
35074;SDS011;21260;34.984;32.490;2023-04-12T12:46:32;8.55;;;3.33;;
35074;SDS011;21260;34.984;32.490;2023-04-12T12:48:58;4.70;;;2.90;;
35074;SDS011;21260;34.984;32.490;2023-04-12T12:51:24;7.63;;;3.10;;
35074;SDS011;21260;34.984;32.490;2023-04-12T12:53:51;8.45;;;2.60;;
35074;SDS011;21260;34.984;32.490;2023-04-12T12:56:18;7.45;;;3.15;;
35074;SDS011;21260;34.984;32.490;2023-04-12T12:58:44;6.70;;;3.35;;
35074;SDS011;21260;34.984;32.490;2023-04-12T13:01:10;6.15;;;3.13;;
35074;SDS011;21260;34.984;32.490;2023-04-12T13:03:37;6.73;;;3.00;;
35074;SDS011;21260;34.984;32.490;2023-04-12T13:06:03;4.72;;;2.67;;
35074;SDS011;21260;34.984;32.490;2023-04-12T13:08:30;6.65;;;2.97;;
35074;SDS011;21260;34.984;32.490;2023-04-12T13:11:00;6.97;;;3.30;;
35074;SDS011;21260;34.984;32.490;2023-04-12T13:13:27;6.97;;;3.10;;
35074;SDS011;21260;34.984;32.490;2023-04-12T13:15:53;6.20;;;3.20;;
35074;SDS011;21260;34.984;32.490;2023-04-12T13:18:20;5.68;;;2.90;;
35074;SDS011;21260;34.984;32.490;2023-04-12T13:20:46;7.65;;;2.70;;
35074;SDS011;21260;34.984;32.490;2023-04-12T13:23:12;5.90;;;2.60;;
35074;SDS011;21260;34.984;32.490;2023-04-12T13:25:39;5.20;;;2.75;;
35074;SDS011;21260;34.984;32.490;2023-04-12T13:28:06;7.28;;;2.85;;
35074;SDS011;21260;34.984;32.490;2023-04-12T13:30:33;6.53;;;2.60;;
35074;SDS011;21260;34.984;32.490;2023-04-12T13:32:59;7.18;;;2.53;;
35074;SDS011;21260;34.984;32.490;2023-04-12T13:35:25;7.43;;;2.88;;
35074;SDS011;21260;34.984;32.490;2023-04-12T13:37:51;8.77;;;2.95;;
35074;SDS011;21260;34.984;32.490;2023-04-12T13:40:18;6.63;;;2.92;;
35074;SDS011;21260;34.984;32.490;2023-04-12T13:42:44;8.25;;;2.70;;
35074;SDS011;21260;34.984;32.490;2023-04-12T13:45:10;6.22;;;2.80;;
35074;SDS011;21260;34.984;32.490;2023-04-12T13:47:37;5.50;;;2.53;;
35074;SDS011;21260;34.984;32.490;2023-04-12T13:50:03;7.72;;;2.55;;
35074;SDS011;21260;34.984;32.490;2023-04-12T13:52:30;6.63;;;2.67;;
35074;SDS011;21260;34.984;32.490;2023-04-12T13:54:57;7.53;;;2.55;;
35074;SDS011;21260;34.984;32.490;2023-04-12T13:57:24;6.77;;;2.30;;
35074;SDS011;21260;34.984;32.490;2023-04-12T13:59:50;5.07;;;2.10;;
35074;SDS011;21260;34.984;32.490;2023-04-12T14:02:16;5.05;;;1.88;;
35074;SDS011;21260;34.984;32.490;2023-04-12T14:04:49;6.40;;;2.35;;
35074;SDS011;21260;34.984;32.490;2023-04-12T14:07:19;5.50;;;2.15;;
35074;SDS011;21260;34.984;32.490;2023-04-12T14:09:45;3.15;;;1.65;;
35074;SDS011;21260;34.984;32.490;2023-04-12T14:12:12;5.03;;;1.90;;
35074;SDS011;21260;34.984;32.490;2023-04-12T14:14:39;6.00;;;2.00;;
35074;SDS011;21260;34.984;32.490;2023-04-12T14:17:06;7.75;;;2.25;;
35074;SDS011;21260;34.984;32.490;2023-04-12T14:22:24;4.40;;;1.80;;
35074;SDS011;21260;34.984;32.490;2023-04-12T14:24:51;7.35;;;2.15;;
35074;SDS011;21260;34.984;32.490;2023-04-12T14:27:17;5.28;;;1.95;;
35074;SDS011;21260;34.984;32.490;2023-04-12T14:29:43;5.97;;;2.03;;
35074;SDS011;21260;34.984;32.490;2023-04-12T14:32:10;5.80;;;2.10;;
35074;SDS011;21260;34.984;32.490;2023-04-12T14:34:36;4.55;;;2.20;;
35074;SDS011;21260;34.984;32.490;2023-04-12T14:37:02;5.32;;;2.10;;
35074;SDS011;21260;34.984;32.490;2023-04-12T14:39:28;5.80;;;2.10;;
35074;SDS011;21260;34.984;32.490;2023-04-12T14:41:56;6.00;;;2.50;;
35074;SDS011;21260;34.984;32.490;2023-04-12T14:44:22;6.60;;;2.38;;
35074;SDS011;21260;34.984;32.490;2023-04-12T14:46:48;4.53;;;2.30;;
35074;SDS011;21260;34.984;32.490;2023-04-12T14:49:14;5.25;;;2.67;;
35074;SDS011;21260;34.984;32.490;2023-04-12T14:51:41;10.13;;;2.63;;
35074;SDS011;21260;34.984;32.490;2023-04-12T14:54:07;6.07;;;2.78;;
35074;SDS011;21260;34.984;32.490;2023-04-12T14:56:33;8.30;;;3.33;;
35074;SDS011;21260;34.984;32.490;2023-04-12T14:59:00;7.07;;;3.00;;
35074;SDS011;21260;34.984;32.490;2023-04-12T15:01:27;6.55;;;3.00;;
35074;SDS011;21260;34.984;32.490;2023-04-12T15:03:53;7.10;;;3.08;;
35074;SDS011;21260;34.984;32.490;2023-04-12T15:06:20;6.88;;;3.28;;
35074;SDS011;21260;34.984;32.490;2023-04-12T15:08:51;6.28;;;3.00;;
35074;SDS011;21260;34.984;32.490;2023-04-12T15:11:21;8.38;;;3.13;;
35074;SDS011;21260;34.984;32.490;2023-04-12T15:13:50;7.75;;;3.17;;
35074;SDS011;21260;34.984;32.490;2023-04-12T15:16:17;7.63;;;3.10;;